To NAV CANADA Home Page Login to a new session Search on AWWS site Feedback and Comments Disclaimer Vers la page française équivalente Tips FAQ What's new on the site To the Forecasts and Observations / NOTAM section To "File a Flight Plan" website Publications and other links Update of the User's profile FIC Telephone Numbers My Weather Data Folder Route Weather Data Regional Weather Data Local Weather Data To the Forecasts and Observations / NOTAM section
Request Generated 05/30/2015 at 10:06:32 UTC . Weather information available at that time is displayed.

METAR/TAF

GANDER/GANDER INTL/NL    

METAR CYQX 301000Z 21015KT 15SM FEW020 BKN160 BKN220 OVC260 07/03
A3025 RMK SC1AC4CS2CI1 SLP247=
METAR CYQX 300900Z 22014G21KT 20SM FEW020 BKN160 BKN260 06/02 A3025
RMK SC1AC4CI2 SLP248=
METAR CYQX 300800Z 22013KT 20SM BKN020 BKN045 BKN260 06/03 A3026 RMK
SC5SC1CI1 AC TR SLP251=

TAF CYQX 300538Z 3006/3106 20012KT P6SM FEW020 TEMPO 3006/3012 BKN020
BECMG 3006/3008 20012KT
FM301200 22012G22KT P6SM SCT030
BECMG 3016/3018 22015G25KT
BECMG 3022/3024 22015KT
FM310500 22012G22KT P6SM BKN080
RMK NXT FCST BY 301200Z=
Your time UTC time
Weather data provided by Environment Canada and NAV CANADA